createdAt,value
2023-05-02T00:00:51.289Z,99.92
2023-05-02T00:03:18.523Z,100.00
2023-05-02T00:05:45.371Z,100.00
2023-05-02T00:08:30.370Z,100.00
2023-05-02T00:10:56.694Z,100.00
2023-05-02T00:13:23.538Z,100.00
2023-05-02T00:15:50.493Z,100.00
2023-05-02T00:18:17.172Z,99.92
2023-05-02T00:20:43.918Z,100.00
2023-05-02T00:23:12.147Z,100.00
2023-05-02T00:25:45.511Z,100.00
2023-05-02T00:28:13.667Z,100.00
2023-05-02T00:30:46.805Z,100.00
2023-05-02T00:33:14.918Z,100.00
2023-05-02T00:35:41.996Z,100.00
2023-05-02T00:38:09.049Z,100.00
2023-05-02T00:40:51.186Z,100.00
2023-05-02T00:43:18.516Z,100.00
2023-05-02T00:45:46.493Z,100.00
2023-05-02T00:48:13.789Z,100.00
2023-05-02T00:50:42.272Z,100.00
2023-05-02T00:53:11.666Z,100.00
2023-05-02T00:55:38.685Z,99.99
2023-05-02T00:58:11.773Z,100.00
2023-05-02T01:01:08.715Z,100.00
2023-05-02T01:03:53.951Z,100.00
2023-05-02T01:06:42.576Z,100.00
2023-05-02T01:09:27.650Z,100.00
2023-05-02T01:12:12.871Z,100.00
2023-05-02T01:14:45.549Z,100.00
2023-05-02T01:17:14.991Z,100.00
2023-05-02T01:19:54.292Z,100.00
2023-05-02T01:22:22.401Z,100.00
2023-05-02T01:25:15.450Z,100.00
2023-05-02T01:28:19.184Z,100.00
2023-05-02T01:30:47.064Z,100.00
2023-05-02T01:33:16.213Z,100.00
2023-05-02T01:35:44.703Z,100.00
2023-05-02T01:38:15.951Z,100.00
2023-05-02T01:40:45.000Z,100.00
2023-05-02T01:43:14.384Z,100.00
2023-05-02T01:45:44.271Z,100.00
2023-05-02T01:48:12.594Z,100.00
2023-05-02T01:50:42.136Z,99.81
2023-05-02T01:53:13.916Z,100.00
2023-05-02T01:55:43.365Z,99.62
2023-05-02T01:58:12.124Z,99.74
2023-05-02T02:00:39.792Z,98.94
2023-05-02T02:03:07.403Z,99.22
2023-05-02T02:05:35.018Z,99.37
2023-05-02T02:08:01.745Z,99.03
2023-05-02T02:10:30.766Z,99.06
2023-05-02T02:13:07.662Z,99.04
2023-05-02T02:15:36.061Z,98.85
2023-05-02T02:18:18.345Z,98.11
2023-05-02T02:20:47.113Z,98.40
2023-05-02T02:23:15.533Z,97.45
2023-05-02T02:25:44.726Z,97.37
2023-05-02T02:28:11.612Z,97.82
2023-05-02T02:30:38.207Z,97.48
2023-05-02T02:33:04.882Z,97.30
2023-05-02T02:35:40.355Z,97.51
2023-05-02T02:38:28.199Z,97.12
2023-05-02T02:41:00.042Z,97.04
2023-05-02T02:43:42.856Z,96.25
2023-05-02T02:46:34.545Z,96.80
2023-05-02T02:49:24.438Z,96.63
2023-05-02T02:52:05.244Z,95.97
2023-05-02T02:54:52.458Z,96.33
2023-05-02T02:57:23.494Z,96.64
2023-05-02T03:00:00.095Z,96.31
2023-05-02T03:02:30.900Z,96.30
2023-05-02T03:04:58.904Z,96.45
2023-05-02T03:07:28.514Z,96.26
2023-05-02T03:09:55.345Z,96.43
2023-05-02T03:12:22.329Z,96.62
2023-05-02T03:14:48.768Z,96.53
2023-05-02T03:17:15.289Z,96.63
2023-05-02T03:19:42.039Z,95.99
2023-05-02T03:22:09.462Z,96.29
2023-05-02T03:24:35.970Z,96.16
2023-05-02T03:27:02.933Z,96.73
2023-05-02T03:29:29.657Z,96.77
2023-05-02T03:31:56.285Z,95.70
2023-05-02T03:34:23.015Z,95.54
2023-05-02T03:36:49.574Z,95.48
2023-05-02T03:39:16.202Z,96.19
2023-05-02T03:41:43.828Z,95.41
2023-05-02T03:44:10.756Z,95.60
2023-05-02T03:46:37.215Z,95.60
2023-05-02T03:49:03.777Z,95.65
2023-05-02T03:51:30.523Z,95.30
2023-05-02T03:53:58.135Z,94.94
2023-05-02T03:56:24.642Z,95.18
2023-05-02T03:58:51.140Z,95.47
2023-05-02T04:01:17.711Z,95.69
2023-05-02T04:03:44.393Z,95.79
2023-05-02T04:06:11.245Z,95.63
2023-05-02T04:08:38.727Z,95.38
2023-05-02T04:11:05.442Z,95.48
2023-05-02T04:13:32.247Z,95.63
2023-05-02T04:15:58.898Z,95.77
2023-05-02T04:18:25.682Z,96.23
2023-05-02T04:20:52.115Z,96.69
2023-05-02T04:23:19.032Z,96.10
2023-05-02T04:25:52.885Z,95.98
2023-05-02T04:28:21.670Z,96.24
2023-05-02T04:30:49.591Z,96.23
2023-05-02T04:33:18.427Z,96.30
2023-05-02T04:35:45.004Z,95.60
2023-05-02T04:38:11.720Z,95.67
2023-05-02T04:40:38.662Z,95.13
2023-05-02T04:43:05.114Z,95.96
2023-05-02T04:45:32.369Z,97.10
2023-05-02T04:47:59.033Z,97.09
2023-05-02T04:50:27.880Z,96.98
2023-05-02T04:52:54.847Z,97.27
2023-05-02T04:55:22.197Z,97.06
2023-05-02T04:57:48.621Z,96.89
2023-05-02T05:00:15.847Z,97.20
2023-05-02T05:02:43.269Z,97.10
2023-05-02T05:05:09.965Z,96.82
2023-05-02T05:07:36.460Z,96.91
2023-05-02T05:10:03.667Z,97.44
2023-05-02T05:12:30.071Z,97.32
2023-05-02T05:14:57.176Z,97.00
2023-05-02T05:17:23.717Z,96.17
2023-05-02T05:19:50.142Z,96.76
2023-05-02T05:22:16.837Z,96.89
2023-05-02T05:24:51.567Z,96.72
2023-05-02T05:27:18.249Z,95.65
2023-05-02T05:29:44.899Z,95.58
2023-05-02T05:32:11.689Z,95.65
2023-05-02T05:34:38.276Z,95.77
2023-05-02T05:37:04.862Z,95.94
2023-05-02T05:39:31.396Z,96.25
2023-05-02T05:41:58.961Z,96.48
2023-05-02T05:44:25.819Z,96.79
2023-05-02T05:46:52.830Z,96.16
2023-05-02T05:49:19.344Z,96.58
2023-05-02T05:51:47.570Z,96.26
2023-05-02T05:54:13.993Z,96.29
2023-05-02T05:56:40.520Z,96.62
2023-05-02T05:59:06.998Z,97.48
2023-05-02T06:01:34.096Z,98.25
2023-05-02T06:04:00.853Z,97.91
2023-05-02T06:06:28.143Z,98.65
2023-05-02T06:08:54.717Z,99.08
2023-05-02T06:11:21.508Z,99.29
2023-05-02T06:13:48.355Z,99.45
2023-05-02T06:16:14.977Z,99.17
2023-05-02T06:18:41.496Z,98.80
2023-05-02T06:21:08.084Z,98.13
2023-05-02T06:23:34.645Z,98.54
2023-05-02T06:26:01.857Z,98.90
2023-05-02T06:28:29.847Z,99.13
2023-05-02T06:31:05.805Z,98.41
2023-05-02T06:33:33.877Z,98.89
2023-05-02T06:36:01.872Z,99.04
2023-05-02T06:38:28.832Z,99.27
2023-05-02T06:40:55.620Z,98.40
2023-05-02T06:43:22.132Z,99.28
2023-05-02T06:45:48.837Z,97.85
2023-05-02T06:48:15.753Z,98.59
2023-05-02T06:50:42.375Z,97.96
2023-05-02T06:53:09.561Z,98.16
2023-05-02T06:55:36.063Z,98.09
2023-05-02T06:58:02.564Z,98.36
2023-05-02T07:00:29.224Z,98.95
2023-05-02T07:02:56.423Z,98.05
2023-05-02T07:05:23.371Z,97.30
2023-05-02T07:07:49.735Z,96.86
2023-05-02T07:10:16.292Z,96.28
2023-05-02T07:12:42.970Z,96.65
2023-05-02T07:15:10.228Z,96.14
2023-05-02T07:17:37.035Z,95.12
2023-05-02T07:20:04.209Z,95.88
2023-05-02T07:22:31.873Z,95.65
2023-05-02T07:25:01.507Z,95.31
2023-05-02T07:27:29.284Z,94.39
2023-05-02T07:29:56.280Z,94.64
2023-05-02T07:32:24.707Z,94.45
2023-05-02T07:34:54.166Z,94.01
2023-05-02T07:37:21.108Z,91.25
2023-05-02T07:39:47.893Z,90.22
2023-05-02T07:42:14.395Z,89.49
2023-05-02T07:44:41.424Z,91.53
2023-05-02T07:47:08.630Z,90.56
2023-05-02T07:49:36.746Z,90.64
2023-05-02T07:52:04.238Z,91.85
2023-05-02T07:54:30.894Z,91.47
2023-05-02T07:56:58.700Z,92.97
2023-05-02T07:59:25.326Z,94.43
2023-05-02T08:01:51.792Z,95.33
2023-05-02T08:04:18.574Z,97.27
2023-05-02T08:06:45.307Z,98.90
2023-05-02T08:09:11.920Z,99.08
2023-05-02T08:11:38.288Z,100.00
2023-05-02T08:14:05.021Z,99.13
2023-05-02T08:16:31.490Z,99.74
2023-05-02T08:18:58.190Z,99.27
2023-05-02T08:21:24.808Z,98.94
2023-05-02T08:23:51.310Z,98.59
2023-05-02T08:26:19.012Z,99.10
2023-05-02T08:28:45.928Z,97.99
2023-05-02T08:31:12.623Z,97.42
2023-05-02T08:33:39.531Z,97.59
2023-05-02T08:36:14.132Z,97.02
2023-05-02T08:38:45.110Z,97.43
2023-05-02T08:41:12.698Z,97.75
2023-05-02T08:43:39.985Z,98.64
2023-05-02T08:46:08.392Z,97.02
2023-05-02T08:48:41.202Z,97.34
2023-05-02T08:51:13.277Z,94.85
2023-05-02T08:53:40.983Z,95.87
2023-05-02T08:56:08.948Z,96.71
2023-05-02T08:58:37.250Z,95.47
2023-05-02T09:01:14.881Z,95.80
2023-05-02T09:03:43.825Z,95.76
2023-05-02T09:06:15.089Z,95.09
2023-05-02T09:08:43.748Z,94.44
2023-05-02T09:11:11.596Z,92.89
2023-05-02T09:13:38.916Z,93.14
2023-05-02T09:16:07.556Z,91.36
2023-05-02T09:18:36.930Z,92.15
2023-05-02T09:21:11.872Z,92.55
2023-05-02T09:23:41.532Z,93.38
2023-05-02T09:26:18.638Z,92.92
2023-05-02T09:28:46.469Z,92.33
2023-05-02T09:31:18.767Z,91.70
2023-05-02T09:33:49.955Z,91.88
2023-05-02T09:36:18.487Z,89.94
2023-05-02T09:38:46.885Z,88.59
2023-05-02T09:41:14.335Z,88.76
2023-05-02T09:43:41.204Z,88.82
2023-05-02T09:46:09.773Z,89.02
2023-05-02T09:49:02.364Z,88.37
2023-05-02T09:51:28.831Z,88.98
2023-05-02T09:53:55.320Z,88.96
2023-05-02T09:56:22.544Z,88.06
2023-05-02T09:58:50.557Z,87.50
2023-05-02T10:01:21.448Z,87.63
2023-05-02T10:03:48.849Z,88.04
2023-05-02T10:06:17.291Z,86.57
2023-05-02T10:08:47.505Z,83.18
2023-05-02T10:11:14.627Z,82.94
2023-05-02T10:13:43.355Z,82.16
2023-05-02T10:16:12.768Z,82.93
2023-05-02T10:18:44.741Z,82.49
2023-05-02T10:21:12.613Z,84.06
2023-05-02T10:23:44.055Z,83.89
2023-05-02T10:26:14.961Z,83.51
2023-05-02T10:28:42.626Z,85.78
2023-05-02T10:31:14.244Z,86.05
2023-05-02T10:33:41.460Z,85.58
2023-05-02T10:36:09.946Z,86.67
2023-05-02T10:38:37.353Z,84.48
2023-05-02T10:41:14.960Z,84.71
2023-05-02T10:43:49.477Z,83.31
2023-05-02T10:46:36.040Z,81.97
2023-05-02T10:49:06.078Z,82.67
2023-05-02T10:51:33.629Z,83.14
2023-05-02T10:54:15.916Z,84.21
2023-05-02T10:57:04.331Z,84.05
2023-05-02T10:59:33.697Z,83.43
2023-05-02T11:02:01.483Z,82.94
2023-05-02T11:05:04.727Z,81.37
2023-05-02T11:07:33.975Z,81.36
2023-05-02T11:10:20.264Z,78.98
2023-05-02T11:12:52.077Z,79.27
2023-05-02T11:15:32.664Z,77.85
2023-05-02T11:18:09.424Z,77.39
2023-05-02T11:20:37.333Z,77.68
2023-05-02T11:23:16.672Z,78.63
2023-05-02T11:25:46.228Z,79.65
2023-05-02T11:28:38.258Z,76.49
2023-05-02T11:31:07.541Z,73.58
2023-05-02T11:33:34.501Z,74.69
2023-05-02T11:36:01.353Z,72.76
2023-05-02T11:38:38.793Z,72.77
2023-05-02T11:41:05.482Z,72.20
2023-05-02T11:43:32.890Z,72.78
2023-05-02T11:46:01.403Z,76.32
2023-05-02T11:48:28.823Z,73.41
2023-05-02T11:50:57.878Z,72.88
2023-05-02T11:53:26.230Z,75.21
2023-05-02T11:55:58.222Z,73.54
2023-05-02T11:58:29.563Z,73.37
2023-05-02T12:00:57.010Z,73.55
2023-05-02T12:03:34.208Z,71.12
2023-05-02T12:06:12.970Z,67.77
2023-05-02T12:08:40.678Z,64.42
2023-05-02T12:11:07.356Z,65.71
2023-05-02T12:13:34.062Z,64.34
2023-05-02T12:16:01.521Z,63.45
2023-05-02T12:18:28.548Z,65.35
2023-05-02T12:20:56.471Z,67.05
2023-05-02T12:23:26.285Z,64.42
2023-05-02T12:25:52.929Z,65.31
2023-05-02T12:28:20.646Z,69.04
2023-05-02T12:30:49.663Z,68.85
2023-05-02T12:33:18.514Z,68.22
2023-05-02T12:35:47.384Z,68.94
2023-05-02T12:38:16.653Z,69.97
2023-05-02T12:40:48.228Z,68.42
2023-05-02T12:43:14.986Z,69.80
2023-05-02T12:45:41.782Z,67.83
2023-05-02T12:48:19.440Z,65.34
2023-05-02T12:50:46.279Z,65.63
2023-05-02T12:53:12.979Z,66.86
2023-05-02T12:55:39.560Z,68.09
2023-05-02T12:58:07.373Z,65.40
2023-05-02T13:00:37.393Z,67.55
2023-05-02T13:03:05.257Z,64.25
2023-05-02T13:05:31.700Z,64.46
2023-05-02T13:07:59.104Z,64.91
2023-05-02T13:10:26.256Z,65.28
2023-05-02T13:12:54.129Z,65.61
2023-05-02T13:15:21.028Z,64.98
2023-05-02T13:17:50.056Z,66.50
2023-05-02T13:20:16.651Z,66.39
2023-05-02T13:22:43.407Z,66.28
2023-05-02T13:25:10.093Z,66.30
2023-05-02T13:27:36.585Z,65.50
2023-05-02T13:30:04.997Z,66.31
2023-05-02T13:32:34.707Z,64.93
2023-05-02T13:35:01.278Z,65.30
2023-05-02T13:37:27.927Z,64.98
2023-05-02T13:39:54.588Z,64.23
2023-05-02T13:42:21.158Z,62.53
2023-05-02T13:44:48.246Z,61.64
2023-05-02T13:47:14.924Z,62.67
2023-05-02T13:49:41.603Z,60.52
2023-05-02T13:52:08.622Z,60.33
2023-05-02T13:54:35.115Z,60.88
2023-05-02T13:57:02.588Z,58.68
2023-05-02T13:59:29.189Z,58.79
2023-05-02T14:01:55.998Z,59.60
2023-05-02T14:04:25.045Z,59.90
2023-05-02T14:06:51.756Z,60.64
2023-05-02T14:09:18.749Z,59.59
2023-05-02T14:11:47.142Z,60.66
2023-05-02T14:14:13.618Z,58.09
2023-05-02T14:16:40.280Z,58.28
2023-05-02T14:19:06.804Z,58.15
2023-05-02T14:21:33.354Z,54.06
2023-05-02T14:24:00.266Z,54.28
2023-05-02T14:26:26.795Z,57.28
2023-05-02T14:28:53.369Z,58.58
2023-05-02T14:31:19.783Z,58.14
2023-05-02T14:33:46.355Z,57.99
2023-05-02T14:36:12.854Z,58.72
2023-05-02T14:38:41.371Z,57.90
2023-05-02T14:41:07.996Z,56.99
2023-05-02T14:43:34.717Z,58.22
2023-05-02T14:46:01.256Z,58.13
2023-05-02T14:48:28.416Z,58.11
2023-05-02T14:50:54.778Z,57.17
2023-05-02T14:53:21.368Z,58.48
2023-05-02T14:55:47.898Z,57.13
2023-05-02T14:58:20.275Z,58.47
2023-05-02T15:00:46.970Z,58.59
2023-05-02T15:03:14.371Z,59.76
2023-05-02T15:05:41.707Z,57.20
2023-05-02T15:08:08.499Z,57.19
2023-05-02T15:10:38.749Z,58.16
2023-05-02T15:13:06.644Z,56.45
2023-05-02T15:15:33.364Z,55.93
2023-05-02T15:18:00.312Z,57.08
2023-05-02T15:20:26.908Z,56.50
2023-05-02T15:22:54.057Z,56.73
2023-05-02T15:25:20.487Z,55.75
2023-05-02T15:27:47.007Z,53.64
2023-05-02T15:30:14.653Z,54.44
2023-05-02T15:32:42.640Z,55.51
2023-05-02T15:35:09.274Z,56.30
2023-05-02T15:37:36.398Z,53.24
2023-05-02T15:40:04.158Z,52.14
2023-05-02T15:42:36.720Z,51.70
2023-05-02T15:45:04.153Z,52.81
2023-05-02T15:47:30.827Z,53.56
2023-05-02T15:49:58.259Z,53.06
2023-05-02T15:52:24.974Z,51.58
2023-05-02T15:54:51.924Z,51.60
2023-05-02T15:57:18.769Z,52.33
2023-05-02T15:59:45.361Z,53.06
2023-05-02T16:02:12.027Z,54.10
2023-05-02T16:04:38.778Z,56.23
2023-05-02T16:07:05.219Z,52.51
2023-05-02T16:09:31.778Z,53.57
2023-05-02T16:11:58.333Z,51.20
2023-05-02T16:14:26.131Z,52.33
2023-05-02T16:16:52.750Z,52.44
2023-05-02T16:19:19.155Z,51.80
2023-05-02T16:21:45.888Z,52.03
2023-05-02T16:24:12.518Z,51.21
2023-05-02T16:26:39.101Z,51.77
2023-05-02T16:29:05.884Z,50.51
2023-05-02T16:31:32.582Z,50.98
2023-05-02T16:33:59.180Z,50.38
2023-05-02T16:36:26.397Z,51.05
2023-05-02T16:38:52.899Z,51.20
2023-05-02T16:41:19.608Z,50.65
2023-05-02T16:43:46.820Z,52.41
2023-05-02T16:46:14.089Z,51.20
2023-05-02T16:48:40.792Z,50.02
2023-05-02T16:51:07.590Z,51.66
2023-05-02T16:53:34.646Z,51.75
2023-05-02T16:56:01.483Z,50.88
2023-05-02T16:58:29.008Z,49.97
2023-05-02T17:00:56.384Z,50.88
2023-05-02T17:03:22.933Z,50.71
2023-05-02T17:05:49.392Z,50.34
2023-05-02T17:08:16.831Z,50.94
2023-05-02T17:10:48.397Z,51.24
2023-05-02T17:13:15.094Z,52.41
2023-05-02T17:15:41.901Z,52.41
2023-05-02T17:18:08.459Z,52.05
2023-05-02T17:20:35.997Z,51.96
2023-05-02T17:23:02.900Z,53.14
2023-05-02T17:25:30.360Z,53.73
2023-05-02T17:27:57.245Z,53.65
2023-05-02T17:30:24.998Z,53.08
2023-05-02T17:32:51.563Z,53.28
2023-05-02T17:35:18.301Z,52.85
2023-05-02T17:37:45.310Z,54.00
2023-05-02T17:40:12.233Z,51.93
2023-05-02T17:42:39.289Z,52.31
2023-05-02T17:45:07.289Z,52.62
2023-05-02T17:47:34.113Z,53.07
2023-05-02T17:50:04.667Z,51.68
2023-05-02T17:52:33.053Z,51.74
2023-05-02T17:54:59.569Z,51.00
2023-05-02T17:57:26.692Z,50.98
2023-05-02T17:59:56.515Z,52.28
2023-05-02T18:02:23.908Z,52.54
2023-05-02T18:04:50.393Z,53.62
2023-05-02T18:07:23.469Z,52.87
2023-05-02T18:09:51.670Z,52.28
2023-05-02T18:12:18.911Z,53.97
2023-05-02T18:14:45.626Z,53.74
2023-05-02T18:17:12.493Z,53.27
2023-05-02T18:19:39.137Z,54.79
2023-05-02T18:22:05.670Z,54.13
2023-05-02T18:24:32.610Z,53.82
2023-05-02T18:26:59.266Z,54.91
2023-05-02T18:29:25.918Z,55.35
2023-05-02T18:31:52.675Z,56.06
2023-05-02T18:34:19.519Z,56.11
2023-05-02T18:36:46.617Z,57.46
2023-05-02T18:39:13.411Z,56.90
2023-05-02T18:41:40.050Z,59.21
2023-05-02T18:44:09.944Z,59.00
2023-05-02T18:46:36.410Z,57.89
2023-05-02T18:49:03.038Z,61.04
2023-05-02T18:51:30.018Z,59.64
2023-05-02T18:53:56.640Z,62.27
2023-05-02T18:56:23.457Z,66.47
2023-05-02T18:58:56.529Z,68.53
2023-05-02T19:01:24.430Z,71.11
2023-05-02T19:03:52.953Z,71.13
2023-05-02T19:06:22.580Z,72.08
2023-05-02T19:08:58.671Z,72.15
2023-05-02T19:11:27.089Z,72.55
2023-05-02T19:13:59.743Z,71.27
2023-05-02T19:16:28.927Z,71.26
2023-05-02T19:18:56.886Z,73.26
2023-05-02T19:21:23.944Z,74.05
2023-05-02T19:23:51.523Z,74.18
2023-05-02T19:26:18.844Z,74.81
2023-05-02T19:28:46.409Z,75.68
2023-05-02T19:31:15.409Z,74.89
2023-05-02T19:33:49.865Z,74.68
2023-05-02T19:36:17.398Z,74.76
2023-05-02T19:38:44.699Z,76.22
2023-05-02T19:41:11.336Z,77.29
2023-05-02T19:43:38.577Z,77.05
2023-05-02T19:46:05.081Z,78.32
2023-05-02T19:48:31.656Z,76.92
2023-05-02T19:51:00.727Z,77.35
2023-05-02T19:53:28.070Z,77.41
2023-05-02T19:55:59.251Z,78.61
2023-05-02T19:58:26.908Z,76.63
2023-05-02T20:00:55.052Z,78.88
2023-05-02T20:03:22.388Z,78.56
2023-05-02T20:05:49.845Z,77.52
2023-05-02T20:08:17.992Z,78.24
2023-05-02T20:10:45.535Z,79.01
2023-05-02T20:13:12.047Z,79.02
2023-05-02T20:15:39.230Z,78.71
2023-05-02T20:18:06.144Z,78.26
2023-05-02T20:20:32.838Z,78.62
2023-05-02T20:22:59.805Z,78.21
2023-05-02T20:25:29.450Z,80.57
2023-05-02T20:27:56.135Z,82.38
2023-05-02T20:30:23.270Z,81.70
2023-05-02T20:32:50.621Z,80.83
2023-05-02T20:35:18.195Z,80.76
2023-05-02T20:37:45.039Z,81.85
2023-05-02T20:40:12.603Z,81.88
2023-05-02T20:42:42.335Z,83.70
2023-05-02T20:45:12.506Z,84.01
2023-05-02T20:47:39.865Z,82.72
2023-05-02T20:50:09.252Z,83.18
2023-05-02T20:52:37.721Z,83.16
2023-05-02T20:55:05.074Z,83.62
2023-05-02T20:57:32.143Z,85.88
2023-05-02T20:59:59.496Z,85.10
2023-05-02T21:02:27.387Z,87.05
2023-05-02T21:04:55.360Z,87.16
2023-05-02T21:07:22.171Z,86.93
2023-05-02T21:09:49.244Z,86.74
2023-05-02T21:12:16.201Z,87.99
2023-05-02T21:14:43.106Z,86.66
2023-05-02T21:17:09.624Z,86.58
2023-05-02T21:19:37.585Z,88.17
2023-05-02T21:22:04.413Z,86.54
2023-05-02T21:24:31.467Z,87.71
2023-05-02T21:26:58.756Z,86.00
2023-05-02T21:29:25.361Z,86.67
2023-05-02T21:31:53.323Z,85.75
2023-05-02T21:34:21.661Z,87.72
2023-05-02T21:36:48.517Z,86.89
2023-05-02T21:39:16.656Z,86.41
2023-05-02T21:41:43.738Z,87.65
2023-05-02T21:44:11.295Z,86.44
2023-05-02T21:46:38.145Z,87.87
2023-05-02T21:49:05.542Z,87.50
2023-05-02T21:51:34.275Z,87.44
2023-05-02T21:54:01.015Z,88.04
2023-05-02T21:56:28.232Z,87.30
2023-05-02T21:58:54.882Z,87.31
2023-05-02T22:01:21.748Z,88.63
2023-05-02T22:03:48.962Z,90.75
2023-05-02T22:06:16.238Z,88.40
2023-05-02T22:08:44.586Z,88.71
2023-05-02T22:11:11.648Z,88.48
2023-05-02T22:13:38.398Z,89.12
2023-05-02T22:16:06.801Z,87.78
2023-05-02T22:18:33.468Z,88.35
2023-05-02T22:21:01.477Z,87.87
2023-05-02T22:23:28.148Z,88.08
2023-05-02T22:25:54.754Z,89.32
2023-05-02T22:28:22.304Z,89.09
2023-05-02T22:30:49.106Z,88.69
2023-05-02T22:33:15.852Z,88.50
2023-05-02T22:35:42.527Z,90.08
2023-05-02T22:38:09.224Z,90.29
2023-05-02T22:40:35.894Z,90.50
2023-05-02T22:43:02.591Z,91.13
2023-05-02T22:45:29.433Z,90.85
2023-05-02T22:47:56.215Z,91.11
2023-05-02T22:50:23.103Z,91.03
2023-05-02T22:52:51.000Z,90.86
2023-05-02T22:55:17.891Z,91.36
2023-05-02T22:57:44.907Z,91.71
2023-05-02T23:00:12.441Z,91.04
2023-05-02T23:02:39.803Z,91.96
2023-05-02T23:05:06.941Z,92.63
2023-05-02T23:07:33.958Z,92.30
2023-05-02T23:10:01.771Z,91.17
2023-05-02T23:12:29.027Z,92.26
2023-05-02T23:14:55.801Z,92.57
2023-05-02T23:17:23.086Z,91.04
2023-05-02T23:19:50.123Z,92.10
2023-05-02T23:22:16.988Z,91.66
2023-05-02T23:24:46.445Z,91.88
2023-05-02T23:27:13.355Z,91.38
2023-05-02T23:29:39.897Z,92.66
2023-05-02T23:32:07.961Z,92.74
2023-05-02T23:34:36.501Z,92.52
2023-05-02T23:37:06.091Z,93.64
2023-05-02T23:39:33.417Z,93.38
2023-05-02T23:42:00.739Z,93.65
2023-05-02T23:44:27.317Z,93.57
2023-05-02T23:46:54.228Z,94.72
2023-05-02T23:49:21.484Z,94.70
2023-05-02T23:51:48.159Z,94.75
2023-05-02T23:54:15.922Z,94.16
2023-05-02T23:56:42.879Z,94.83
2023-05-02T23:59:11.068Z,94.90
